sensor_id;sensor_type;location;lat;lon;timestamp;pressure;altitude;pressure_sealevel;temperature;humidity
77207;BME280;66190;50.708;7.906;2024-02-28T00:02:08;96494.28;;;2.18;93.99
77207;BME280;66190;50.708;7.906;2024-02-28T00:04:34;96499.06;;;2.33;95.40
77207;BME280;66190;50.708;7.906;2024-02-28T00:06:59;96491.78;;;2.35;95.40
77207;BME280;66190;50.708;7.906;2024-02-28T00:09:25;96504.28;;;2.42;95.50
77207;BME280;66190;50.708;7.906;2024-02-28T00:11:50;96514.47;;;2.29;95.16
77207;BME280;66190;50.708;7.906;2024-02-28T00:14:15;96515.72;;;2.25;95.96
77207;BME280;66190;50.708;7.906;2024-02-28T00:16:45;96520.97;;;2.17;95.13
77207;BME280;66190;50.708;7.906;2024-02-28T00:19:11;96527.94;;;2.36;96.97
77207;BME280;66190;50.708;7.906;2024-02-28T00:21:38;96536.72;;;2.18;97.45
77207;BME280;66190;50.708;7.906;2024-02-28T00:24:04;96530.44;;;2.37;97.91
77207;BME280;66190;50.708;7.906;2024-02-28T00:26:29;96530.25;;;2.48;97.78
77207;BME280;66190;50.708;7.906;2024-02-28T00:28:54;96525.84;;;2.57;96.92
77207;BME280;66190;50.708;7.906;2024-02-28T00:31:20;96520.91;;;2.44;96.80
77207;BME280;66190;50.708;7.906;2024-02-28T00:33:47;96520.16;;;2.52;97.21
77207;BME280;66190;50.708;7.906;2024-02-28T00:36:12;96522.34;;;2.56;97.31
77207;BME280;66190;50.708;7.906;2024-02-28T00:38:38;96516.50;;;2.53;95.70
77207;BME280;66190;50.708;7.906;2024-02-28T00:41:03;96518.47;;;2.51;96.82
77207;BME280;66190;50.708;7.906;2024-02-28T00:43:28;96516.72;;;2.59;97.79
77207;BME280;66190;50.708;7.906;2024-02-28T00:45:54;96513.84;;;2.53;97.95
77207;BME280;66190;50.708;7.906;2024-02-28T00:48:21;96523.25;;;2.65;95.97
77207;BME280;66190;50.708;7.906;2024-02-28T00:50:47;96517.78;;;2.66;96.44
77207;BME280;66190;50.708;7.906;2024-02-28T00:53:12;96521.13;;;2.51;94.32
77207;BME280;66190;50.708;7.906;2024-02-28T00:55:38;96520.44;;;2.49;95.88
77207;BME280;66190;50.708;7.906;2024-02-28T00:58:03;96518.31;;;2.70;96.63
77207;BME280;66190;50.708;7.906;2024-02-28T01:00:28;96515.81;;;2.68;95.88
77207;BME280;66190;50.708;7.906;2024-02-28T01:02:54;96516.81;;;2.50;96.08
77207;BME280;66190;50.708;7.906;2024-02-28T01:05:19;96516.44;;;2.45;96.88
77207;BME280;66190;50.708;7.906;2024-02-28T01:07:45;96518.00;;;2.20;95.93
77207;BME280;66190;50.708;7.906;2024-02-28T01:10:10;96516.25;;;2.28;96.27
77207;BME280;66190;50.708;7.906;2024-02-28T01:12:36;96517.50;;;2.34;95.32
77207;BME280;66190;50.708;7.906;2024-02-28T01:15:02;96508.38;;;2.37;95.70
77207;BME280;66190;50.708;7.906;2024-02-28T01:17:28;96517.41;;;2.44;94.93
77207;BME280;66190;50.708;7.906;2024-02-28T01:19:53;96522.78;;;2.34;94.76
77207;BME280;66190;50.708;7.906;2024-02-28T01:22:19;96526.50;;;2.23;94.14
77207;BME280;66190;50.708;7.906;2024-02-28T01:24:44;96521.34;;;2.22;94.24
77207;BME280;66190;50.708;7.906;2024-02-28T01:27:10;96533.25;;;2.18;94.85
77207;BME280;66190;50.708;7.906;2024-02-28T01:29:35;96526.94;;;2.19;95.78
77207;BME280;66190;50.708;7.906;2024-02-28T01:32:01;96530.28;;;2.21;95.58
77207;BME280;66190;50.708;7.906;2024-02-28T01:34:26;96536.03;;;2.16;95.52
77207;BME280;66190;50.708;7.906;2024-02-28T01:36:51;96544.38;;;2.21;95.48
77207;BME280;66190;50.708;7.906;2024-02-28T01:39:17;96537.84;;;2.16;96.07
77207;BME280;66190;50.708;7.906;2024-02-28T01:41:51;96534.09;;;2.18;95.49
77207;BME280;66190;50.708;7.906;2024-02-28T01:44:16;96531.84;;;2.14;94.84
77207;BME280;66190;50.708;7.906;2024-02-28T01:46:43;96524.53;;;1.98;93.35
77207;BME280;66190;50.708;7.906;2024-02-28T01:49:08;96521.16;;;2.06;94.53
77207;BME280;66190;50.708;7.906;2024-02-28T01:51:34;96529.69;;;2.00;93.96
77207;BME280;66190;50.708;7.906;2024-02-28T01:54:00;96535.00;;;2.00;93.45
77207;BME280;66190;50.708;7.906;2024-02-28T01:56:25;96528.50;;;1.94;94.23
77207;BME280;66190;50.708;7.906;2024-02-28T01:58:52;96533.69;;;1.86;94.03
77207;BME280;66190;50.708;7.906;2024-02-28T02:01:19;96534.69;;;1.85;94.51
77207;BME280;66190;50.708;7.906;2024-02-28T02:03:44;96531.53;;;1.72;93.91
77207;BME280;66190;50.708;7.906;2024-02-28T02:06:10;96544.69;;;1.64;94.78
77207;BME280;66190;50.708;7.906;2024-02-28T02:08:36;96542.91;;;1.55;95.39
77207;BME280;66190;50.708;7.906;2024-02-28T02:11:02;96549.75;;;1.58;96.69
77207;BME280;66190;50.708;7.906;2024-02-28T02:13:27;96552.28;;;1.50;96.85
77207;BME280;66190;50.708;7.906;2024-02-28T02:15:53;96544.78;;;1.72;97.88
77207;BME280;66190;50.708;7.906;2024-02-28T02:18:18;96542.88;;;1.65;96.87
77207;BME280;66190;50.708;7.906;2024-02-28T02:20:49;96538.41;;;1.65;97.85
77207;BME280;66190;50.708;7.906;2024-02-28T02:23:15;96543.34;;;1.87;97.72
77207;BME280;66190;50.708;7.906;2024-02-28T02:25:44;96537.66;;;2.00;98.03
77207;BME280;66190;50.708;7.906;2024-02-28T02:28:10;96529.13;;;2.06;98.26
77207;BME280;66190;50.708;7.906;2024-02-28T02:30:35;96533.69;;;2.13;98.34
77207;BME280;66190;50.708;7.906;2024-02-28T02:33:01;96541.47;;;1.97;99.12
77207;BME280;66190;50.708;7.906;2024-02-28T02:35:26;96538.34;;;2.02;99.91
77207;BME280;66190;50.708;7.906;2024-02-28T02:37:51;96536.63;;;2.10;99.55
77207;BME280;66190;50.708;7.906;2024-02-28T02:40:17;96529.13;;;2.06;100.00
77207;BME280;66190;50.708;7.906;2024-02-28T02:42:42;96531.03;;;2.13;100.00
77207;BME280;66190;50.708;7.906;2024-02-28T02:45:08;96532.72;;;2.32;100.00
77207;BME280;66190;50.708;7.906;2024-02-28T02:47:33;96525.50;;;2.24;100.00
77207;BME280;66190;50.708;7.906;2024-02-28T02:49:59;96523.88;;;2.41;100.00
77207;BME280;66190;50.708;7.906;2024-02-28T02:52:24;96521.06;;;2.43;100.00
77207;BME280;66190;50.708;7.906;2024-02-28T02:54:49;96532.09;;;2.38;100.00
77207;BME280;66190;50.708;7.906;2024-02-28T02:57:15;96529.91;;;2.33;100.00
77207;BME280;66190;50.708;7.906;2024-02-28T02:59:40;96540.63;;;2.24;100.00
77207;BME280;66190;50.708;7.906;2024-02-28T03:02:06;96538.25;;;2.39;100.00
77207;BME280;66190;50.708;7.906;2024-02-28T03:04:31;96536.97;;;2.43;100.00
77207;BME280;66190;50.708;7.906;2024-02-28T03:06:56;96538.59;;;2.53;100.00
77207;BME280;66190;50.708;7.906;2024-02-28T03:09:22;96530.84;;;2.60;100.00
77207;BME280;66190;50.708;7.906;2024-02-28T03:11:47;96530.38;;;2.64;99.85
77207;BME280;66190;50.708;7.906;2024-02-28T03:14:13;96539.97;;;2.57;99.36
77207;BME280;66190;50.708;7.906;2024-02-28T03:16:42;96531.31;;;2.55;99.59
77207;BME280;66190;50.708;7.906;2024-02-28T03:19:09;96531.00;;;2.58;99.70
77207;BME280;66190;50.708;7.906;2024-02-28T03:21:35;96529.56;;;2.64;99.79
77207;BME280;66190;50.708;7.906;2024-02-28T03:24:00;96537.53;;;2.64;99.85
77207;BME280;66190;50.708;7.906;2024-02-28T03:26:26;96533.03;;;2.64;99.14
77207;BME280;66190;50.708;7.906;2024-02-28T03:28:51;96531.91;;;2.67;99.73
77207;BME280;66190;50.708;7.906;2024-02-28T03:31:16;96539.34;;;2.63;99.18
77207;BME280;66190;50.708;7.906;2024-02-28T03:33:42;96545.19;;;2.67;98.95
77207;BME280;66190;50.708;7.906;2024-02-28T03:36:07;96543.06;;;2.70;98.60
77207;BME280;66190;50.708;7.906;2024-02-28T03:38:32;96546.63;;;2.61;98.78
77207;BME280;66190;50.708;7.906;2024-02-28T03:40:58;96550.66;;;2.65;99.05
77207;BME280;66190;50.708;7.906;2024-02-28T03:43:23;96553.38;;;2.73;99.05
77207;BME280;66190;50.708;7.906;2024-02-28T03:45:49;96559.47;;;2.66;98.90
77207;BME280;66190;50.708;7.906;2024-02-28T03:48:15;96554.16;;;2.66;98.91
77207;BME280;66190;50.708;7.906;2024-02-28T03:50:40;96558.56;;;2.57;98.42
77207;BME280;66190;50.708;7.906;2024-02-28T03:53:06;96558.22;;;2.43;98.84
77207;BME280;66190;50.708;7.906;2024-02-28T03:55:31;96559.97;;;2.52;99.18
77207;BME280;66190;50.708;7.906;2024-02-28T03:57:57;96562.41;;;2.63;99.23
77207;BME280;66190;50.708;7.906;2024-02-28T04:00:23;96566.53;;;2.57;98.80
77207;BME280;66190;50.708;7.906;2024-02-28T04:02:48;96567.50;;;2.56;98.07
77207;BME280;66190;50.708;7.906;2024-02-28T04:05:13;96567.41;;;2.48;98.95
77207;BME280;66190;50.708;7.906;2024-02-28T04:07:39;96571.41;;;2.52;98.80
77207;BME280;66190;50.708;7.906;2024-02-28T04:10:05;96571.69;;;2.59;99.17
77207;BME280;66190;50.708;7.906;2024-02-28T04:12:31;96571.22;;;2.63;98.75
77207;BME280;66190;50.708;7.906;2024-02-28T04:14:56;96573.09;;;2.53;98.46
77207;BME280;66190;50.708;7.906;2024-02-28T04:17:21;96581.91;;;2.36;98.27
77207;BME280;66190;50.708;7.906;2024-02-28T04:19:47;96575.25;;;2.22;99.61
77207;BME280;66190;50.708;7.906;2024-02-28T04:22:12;96576.03;;;2.33;99.22
77207;BME280;66190;50.708;7.906;2024-02-28T04:24:38;96586.22;;;2.37;99.42
77207;BME280;66190;50.708;7.906;2024-02-28T04:27:03;96586.16;;;2.47;99.66
77207;BME280;66190;50.708;7.906;2024-02-28T04:29:30;96590.69;;;2.54;99.78
77207;BME280;66190;50.708;7.906;2024-02-28T04:31:56;96602.91;;;2.47;99.18
77207;BME280;66190;50.708;7.906;2024-02-28T04:34:21;96599.03;;;2.42;98.68
77207;BME280;66190;50.708;7.906;2024-02-28T04:36:46;96597.31;;;2.50;99.80
77207;BME280;66190;50.708;7.906;2024-02-28T04:39:12;96590.16;;;2.51;98.84
77207;BME280;66190;50.708;7.906;2024-02-28T04:41:37;96591.69;;;2.53;98.77
77207;BME280;66190;50.708;7.906;2024-02-28T04:44:03;96593.78;;;2.32;98.26
77207;BME280;66190;50.708;7.906;2024-02-28T04:46:28;96592.50;;;2.36;99.12
77207;BME280;66190;50.708;7.906;2024-02-28T04:48:54;96596.13;;;2.35;98.71
77207;BME280;66190;50.708;7.906;2024-02-28T04:51:19;96604.63;;;2.39;99.07
77207;BME280;66190;50.708;7.906;2024-02-28T04:53:44;96610.88;;;2.47;99.11
77207;BME280;66190;50.708;7.906;2024-02-28T04:56:10;96607.28;;;2.39;99.08
77207;BME280;66190;50.708;7.906;2024-02-28T04:58:38;96616.19;;;2.47;99.12
77207;BME280;66190;50.708;7.906;2024-02-28T05:01:04;96607.69;;;2.44;98.07
77207;BME280;66190;50.708;7.906;2024-02-28T05:03:29;96608.97;;;2.40;98.41
77207;BME280;66190;50.708;7.906;2024-02-28T05:05:55;96614.56;;;2.37;98.20
77207;BME280;66190;50.708;7.906;2024-02-28T05:08:20;96607.91;;;2.33;98.31
77207;BME280;66190;50.708;7.906;2024-02-28T05:10:46;96614.81;;;2.16;97.85
77207;BME280;66190;50.708;7.906;2024-02-28T05:13:12;96608.25;;;2.20;98.43
77207;BME280;66190;50.708;7.906;2024-02-28T05:15:37;96608.78;;;2.23;98.52
77207;BME280;66190;50.708;7.906;2024-02-28T05:18:03;96618.13;;;2.27;98.74
77207;BME280;66190;50.708;7.906;2024-02-28T05:20:28;96621.59;;;2.28;99.14
77207;BME280;66190;50.708;7.906;2024-02-28T05:22:53;96623.97;;;2.31;99.73
77207;BME280;66190;50.708;7.906;2024-02-28T05:25:19;96622.94;;;2.14;98.85
77207;BME280;66190;50.708;7.906;2024-02-28T05:27:45;96633.63;;;1.95;99.20
77207;BME280;66190;50.708;7.906;2024-02-28T05:30:11;96628.38;;;1.86;99.70
77207;BME280;66190;50.708;7.906;2024-02-28T05:32:36;96626.84;;;2.10;100.00
77207;BME280;66190;50.708;7.906;2024-02-28T05:35:02;96630.41;;;2.01;98.96
77207;BME280;66190;50.708;7.906;2024-02-28T05:37:27;96638.91;;;2.05;99.86
77207;BME280;66190;50.708;7.906;2024-02-28T05:39:53;96638.84;;;2.14;99.88
77207;BME280;66190;50.708;7.906;2024-02-28T05:42:18;96641.06;;;2.19;99.16
77207;BME280;66190;50.708;7.906;2024-02-28T05:44:48;96642.44;;;2.23;99.40
77207;BME280;66190;50.708;7.906;2024-02-28T05:47:13;96638.53;;;2.27;99.70
77207;BME280;66190;50.708;7.906;2024-02-28T05:49:39;96634.19;;;2.26;99.33
77207;BME280;66190;50.708;7.906;2024-02-28T05:52:05;96649.16;;;2.27;99.41
77207;BME280;66190;50.708;7.906;2024-02-28T05:54:30;96648.06;;;2.20;99.36
77207;BME280;66190;50.708;7.906;2024-02-28T05:56:56;96661.03;;;2.23;98.67
77207;BME280;66190;50.708;7.906;2024-02-28T05:59:22;96667.19;;;2.23;98.76
77207;BME280;66190;50.708;7.906;2024-02-28T06:01:47;96666.72;;;2.28;99.83
77207;BME280;66190;50.708;7.906;2024-02-28T06:04:13;96665.22;;;2.25;99.80
77207;BME280;66190;50.708;7.906;2024-02-28T06:06:38;96669.13;;;2.31;99.89
77207;BME280;66190;50.708;7.906;2024-02-28T06:09:04;96667.88;;;2.25;98.94
77207;BME280;66190;50.708;7.906;2024-02-28T06:11:29;96672.63;;;2.22;98.98
77207;BME280;66190;50.708;7.906;2024-02-28T06:13:54;96675.00;;;2.25;98.63
77207;BME280;66190;50.708;7.906;2024-02-28T06:16:20;96678.38;;;2.17;98.97
77207;BME280;66190;50.708;7.906;2024-02-28T06:18:45;96679.38;;;2.07;99.45
77207;BME280;66190;50.708;7.906;2024-02-28T06:21:13;96684.97;;;2.13;99.84
77207;BME280;66190;50.708;7.906;2024-02-28T06:23:38;96689.59;;;2.11;99.39
77207;BME280;66190;50.708;7.906;2024-02-28T06:26:04;96691.09;;;2.14;98.83
77207;BME280;66190;50.708;7.906;2024-02-28T06:28:29;96691.53;;;2.09;98.92
77207;BME280;66190;50.708;7.906;2024-02-28T06:30:55;96698.38;;;2.12;99.16
77207;BME280;66190;50.708;7.906;2024-02-28T06:33:20;96703.16;;;2.08;99.05
77207;BME280;66190;50.708;7.906;2024-02-28T06:35:46;96702.59;;;2.05;98.58
77207;BME280;66190;50.708;7.906;2024-02-28T06:38:11;96702.31;;;1.98;98.15
77207;BME280;66190;50.708;7.906;2024-02-28T06:40:36;96707.22;;;2.03;99.16
77207;BME280;66190;50.708;7.906;2024-02-28T06:43:03;96714.19;;;2.04;98.74
77207;BME280;66190;50.708;7.906;2024-02-28T06:45:30;96723.69;;;2.06;98.58
77207;BME280;66190;50.708;7.906;2024-02-28T06:47:55;96713.47;;;2.11;98.23
77207;BME280;66190;50.708;7.906;2024-02-28T06:50:21;96712.91;;;2.08;99.23
77207;BME280;66190;50.708;7.906;2024-02-28T06:52:46;96714.03;;;2.05;98.67
77207;BME280;66190;50.708;7.906;2024-02-28T06:55:12;96724.38;;;1.99;98.64
77207;BME280;66190;50.708;7.906;2024-02-28T06:57:40;96723.53;;;1.98;99.37
77207;BME280;66190;50.708;7.906;2024-02-28T07:00:07;96716.81;;;2.13;99.53
77207;BME280;66190;50.708;7.906;2024-02-28T07:02:34;96721.03;;;2.06;99.43
77207;BME280;66190;50.708;7.906;2024-02-28T07:05:00;96728.53;;;2.11;99.59
77207;BME280;66190;50.708;7.906;2024-02-28T07:07:26;96724.03;;;2.21;100.00
77207;BME280;66190;50.708;7.906;2024-02-28T07:09:51;96726.28;;;2.16;99.87
77207;BME280;66190;50.708;7.906;2024-02-28T07:12:16;96727.53;;;2.21;99.27
77207;BME280;66190;50.708;7.906;2024-02-28T07:14:42;96729.34;;;2.21;99.01
77207;BME280;66190;50.708;7.906;2024-02-28T07:17:07;96724.59;;;2.24;99.17
77207;BME280;66190;50.708;7.906;2024-02-28T07:19:33;96734.09;;;2.27;99.21
77207;BME280;66190;50.708;7.906;2024-02-28T07:21:58;96732.13;;;2.29;99.00
77207;BME280;66190;50.708;7.906;2024-02-28T07:24:23;96729.72;;;2.36;99.19
77207;BME280;66190;50.708;7.906;2024-02-28T07:26:49;96726.38;;;2.33;98.45
77207;BME280;66190;50.708;7.906;2024-02-28T07:29:16;96728.47;;;2.40;98.82
77207;BME280;66190;50.708;7.906;2024-02-28T07:31:41;96729.03;;;2.33;98.61
77207;BME280;66190;50.708;7.906;2024-02-28T07:34:07;96733.75;;;2.40;99.15
77207;BME280;66190;50.708;7.906;2024-02-28T07:36:33;96736.28;;;2.41;98.68
77207;BME280;66190;50.708;7.906;2024-02-28T07:38:59;96736.81;;;2.45;98.21
77207;BME280;66190;50.708;7.906;2024-02-28T07:41:24;96736.91;;;2.53;98.59
77207;BME280;66190;50.708;7.906;2024-02-28T07:43:50;96736.34;;;2.59;98.69
77207;BME280;66190;50.708;7.906;2024-02-28T07:46:15;96736.88;;;2.62;98.36
77207;BME280;66190;50.708;7.906;2024-02-28T07:48:41;96747.44;;;2.45;97.02
77207;BME280;66190;50.708;7.906;2024-02-28T07:51:09;96747.47;;;2.35;97.79
77207;BME280;66190;50.708;7.906;2024-02-28T07:53:35;96755.81;;;2.40;97.66
77207;BME280;66190;50.708;7.906;2024-02-28T07:56:00;96752.91;;;2.43;98.12
77207;BME280;66190;50.708;7.906;2024-02-28T07:58:26;96759.88;;;2.44;97.97
77207;BME280;66190;50.708;7.906;2024-02-28T08:00:51;96761.91;;;2.60;98.01
77207;BME280;66190;50.708;7.906;2024-02-28T08:03:19;96758.25;;;2.61;97.45
77207;BME280;66190;50.708;7.906;2024-02-28T08:05:45;96749.72;;;2.67;98.23
77207;BME280;66190;50.708;7.906;2024-02-28T08:08:11;96750.25;;;2.70;98.44
77207;BME280;66190;50.708;7.906;2024-02-28T08:10:40;96762.16;;;2.66;98.34
77207;BME280;66190;50.708;7.906;2024-02-28T08:13:05;96762.50;;;2.81;98.71
77207;BME280;66190;50.708;7.906;2024-02-28T08:15:31;96766.28;;;2.78;97.32
77207;BME280;66190;50.708;7.906;2024-02-28T08:17:57;96766.50;;;2.94;98.02
77207;BME280;66190;50.708;7.906;2024-02-28T08:20:23;96777.44;;;2.82;97.16
77207;BME280;66190;50.708;7.906;2024-02-28T08:22:49;96781.59;;;2.94;96.95
77207;BME280;66190;50.708;7.906;2024-02-28T08:25:14;96778.66;;;2.97;97.34
77207;BME280;66190;50.708;7.906;2024-02-28T08:27:41;96787.59;;;2.96;96.58
77207;BME280;66190;50.708;7.906;2024-02-28T08:30:07;96777.06;;;3.04;97.53
77207;BME280;66190;50.708;7.906;2024-02-28T08:32:32;96778.69;;;3.14;97.43
77207;BME280;66190;50.708;7.906;2024-02-28T08:34:58;96777.31;;;3.10;97.12
77207;BME280;66190;50.708;7.906;2024-02-28T08:37:24;96777.16;;;3.12;97.87
77207;BME280;66190;50.708;7.906;2024-02-28T08:39:50;96784.09;;;3.22;97.84
77207;BME280;66190;50.708;7.906;2024-02-28T08:42:15;96781.91;;;3.18;97.37
77207;BME280;66190;50.708;7.906;2024-02-28T08:44:41;96786.06;;;3.20;97.50
77207;BME280;66190;50.708;7.906;2024-02-28T08:47:06;96784.25;;;3.21;97.42
77207;BME280;66190;50.708;7.906;2024-02-28T08:49:38;96783.25;;;3.22;95.70
77207;BME280;66190;50.708;7.906;2024-02-28T08:52:04;96790.78;;;3.26;96.95
77207;BME280;66190;50.708;7.906;2024-02-28T08:54:30;96786.81;;;3.30;95.64
77207;BME280;66190;50.708;7.906;2024-02-28T08:56:55;96791.88;;;3.33;96.28
77207;BME280;66190;50.708;7.906;2024-02-28T08:59:21;96790.34;;;3.31;95.19
77207;BME280;66190;50.708;7.906;2024-02-28T09:01:48;96793.66;;;3.15;94.87
77207;BME280;66190;50.708;7.906;2024-02-28T09:04:13;96793.69;;;3.06;96.21
77207;BME280;66190;50.708;7.906;2024-02-28T09:06:39;96797.19;;;3.33;97.13
77207;BME280;66190;50.708;7.906;2024-02-28T09:09:04;96795.81;;;3.29;96.21
77207;BME280;66190;50.708;7.906;2024-02-28T09:11:30;96787.69;;;3.48;96.36
77207;BME280;66190;50.708;7.906;2024-02-28T09:13:55;96791.84;;;3.51;95.60
77207;BME280;66190;50.708;7.906;2024-02-28T09:16:20;96804.25;;;3.42;94.75
77207;BME280;66190;50.708;7.906;2024-02-28T09:18:46;96815.78;;;3.51;95.29
77207;BME280;66190;50.708;7.906;2024-02-28T09:21:11;96812.78;;;3.64;95.64
77207;BME280;66190;50.708;7.906;2024-02-28T09:23:37;96810.75;;;3.30;93.46
77207;BME280;66190;50.708;7.906;2024-02-28T09:26:05;96814.00;;;3.07;93.96
77207;BME280;66190;50.708;7.906;2024-02-28T09:28:32;96813.84;;;3.08;95.66
77207;BME280;66190;50.708;7.906;2024-02-28T09:30:58;96807.09;;;3.14;94.83
77207;BME280;66190;50.708;7.906;2024-02-28T09:33:23;96816.34;;;3.37;95.50
77207;BME280;66190;50.708;7.906;2024-02-28T09:35:49;96805.84;;;3.53;94.93
77207;BME280;66190;50.708;7.906;2024-02-28T09:38:14;96810.72;;;3.40;92.84
77207;BME280;66190;50.708;7.906;2024-02-28T09:40:40;96811.94;;;3.45;93.27
77207;BME280;66190;50.708;7.906;2024-02-28T09:43:06;96805.25;;;3.59;95.15
77207;BME280;66190;50.708;7.906;2024-02-28T09:45:36;96817.56;;;3.60;93.62
77207;BME280;66190;50.708;7.906;2024-02-28T09:48:02;96818.41;;;3.61;93.67
77207;BME280;66190;50.708;7.906;2024-02-28T09:50:29;96820.84;;;3.54;94.27
77207;BME280;66190;50.708;7.906;2024-02-28T09:52:55;96822.19;;;3.76;94.32
77207;BME280;66190;50.708;7.906;2024-02-28T09:55:21;96816.94;;;3.48;93.35
77207;BME280;66190;50.708;7.906;2024-02-28T09:57:48;96822.44;;;3.65;93.95
77207;BME280;66190;50.708;7.906;2024-02-28T10:00:16;96825.88;;;3.75;92.62
77207;BME280;66190;50.708;7.906;2024-02-28T10:02:45;96829.97;;;3.69;92.60
77207;BME280;66190;50.708;7.906;2024-02-28T10:05:11;96824.88;;;3.93;94.74
77207;BME280;66190;50.708;7.906;2024-02-28T10:07:37;96834.97;;;4.07;94.82
77207;BME280;66190;50.708;7.906;2024-02-28T10:10:03;96840.41;;;3.98;93.34
77207;BME280;66190;50.708;7.906;2024-02-28T10:12:29;96850.19;;;3.80;92.57
77207;BME280;66190;50.708;7.906;2024-02-28T10:14:54;96848.59;;;4.04;93.44
77207;BME280;66190;50.708;7.906;2024-02-28T10:17:20;96851.63;;;3.92;91.47
77207;BME280;66190;50.708;7.906;2024-02-28T10:19:45;96848.66;;;4.12;91.64
77207;BME280;66190;50.708;7.906;2024-02-28T10:22:10;96851.63;;;4.27;91.19
77207;BME280;66190;50.708;7.906;2024-02-28T10:24:36;96857.47;;;4.30;90.36
77207;BME280;66190;50.708;7.906;2024-02-28T10:27:03;96857.00;;;4.35;90.17
77207;BME280;66190;50.708;7.906;2024-02-28T10:29:28;96856.22;;;4.60;90.84
77207;BME280;66190;50.708;7.906;2024-02-28T10:31:57;96857.50;;;4.56;88.91
77207;BME280;66190;50.708;7.906;2024-02-28T10:34:22;96850.34;;;4.56;89.43
77207;BME280;66190;50.708;7.906;2024-02-28T10:36:49;96845.63;;;4.76;89.30
77207;BME280;66190;50.708;7.906;2024-02-28T10:39:14;96850.66;;;4.79;88.43
77207;BME280;66190;50.708;7.906;2024-02-28T10:41:41;96850.72;;;4.87;89.37
77207;BME280;66190;50.708;7.906;2024-02-28T10:44:08;96847.19;;;4.87;86.63
77207;BME280;66190;50.708;7.906;2024-02-28T10:46:37;96848.00;;;4.79;86.20
77207;BME280;66190;50.708;7.906;2024-02-28T10:49:04;96844.53;;;5.12;86.42
77207;BME280;66190;50.708;7.906;2024-02-28T10:51:34;96829.81;;;5.50;85.93
77207;BME280;66190;50.708;7.906;2024-02-28T10:54:10;96831.94;;;5.96;84.22
77207;BME280;66190;50.708;7.906;2024-02-28T10:56:40;96828.34;;;5.55;82.87
77207;BME280;66190;50.708;7.906;2024-02-28T10:59:07;96823.69;;;5.73;85.28
77207;BME280;66190;50.708;7.906;2024-02-28T11:01:37;96818.09;;;5.93;83.78
77207;BME280;66190;50.708;7.906;2024-02-28T11:04:05;96822.22;;;5.79;82.76
77207;BME280;66190;50.708;7.906;2024-02-28T11:06:30;96827.59;;;6.03;83.84
77207;BME280;66190;50.708;7.906;2024-02-28T11:08:59;96819.13;;;6.32;82.26
77207;BME280;66190;50.708;7.906;2024-02-28T11:11:24;96812.91;;;7.18;81.16
77207;BME280;66190;50.708;7.906;2024-02-28T11:13:56;96815.00;;;7.47;78.21
77207;BME280;66190;50.708;7.906;2024-02-28T11:16:32;96820.34;;;7.39;76.55
77207;BME280;66190;50.708;7.906;2024-02-28T11:18:59;96817.50;;;8.01;75.00
77207;BME280;66190;50.708;7.906;2024-02-28T11:21:26;96810.34;;;8.17;73.91
77207;BME280;66190;50.708;7.906;2024-02-28T11:23:56;96803.69;;;8.72;75.78
77207;BME280;66190;50.708;7.906;2024-02-28T11:26:22;96803.34;;;8.90;71.93
77207;BME280;66190;50.708;7.906;2024-02-28T11:28:47;96798.91;;;9.41;73.13
77207;BME280;66190;50.708;7.906;2024-02-28T11:31:13;96800.16;;;9.74;71.67
77207;BME280;66190;50.708;7.906;2024-02-28T11:33:38;96803.72;;;9.16;67.00
77207;BME280;66190;50.708;7.906;2024-02-28T11:36:04;96800.66;;;9.34;69.76
77207;BME280;66190;50.708;7.906;2024-02-28T11:38:31;96798.28;;;9.24;67.38
77207;BME280;66190;50.708;7.906;2024-02-28T11:40:56;96800.59;;;9.12;69.51
77207;BME280;66190;50.708;7.906;2024-02-28T11:43:22;96799.38;;;9.44;68.83
77207;BME280;66190;50.708;7.906;2024-02-28T11:45:48;96798.78;;;9.63;69.44
77207;BME280;66190;50.708;7.906;2024-02-28T11:48:14;96801.47;;;9.99;65.56
77207;BME280;66190;50.708;7.906;2024-02-28T11:50:40;96794.50;;;9.83;65.54
77207;BME280;66190;50.708;7.906;2024-02-28T11:53:07;96782.66;;;10.41;63.55
77207;BME280;66190;50.708;7.906;2024-02-28T11:55:32;96779.34;;;10.39;65.27
77207;BME280;66190;50.708;7.906;2024-02-28T11:57:58;96783.56;;;10.76;65.09
77207;BME280;66190;50.708;7.906;2024-02-28T12:00:23;96783.81;;;10.32;64.44
77207;BME280;66190;50.708;7.906;2024-02-28T12:02:49;96786.16;;;10.35;62.32
77207;BME280;66190;50.708;7.906;2024-02-28T12:05:14;96774.34;;;10.57;62.36
77207;BME280;66190;50.708;7.906;2024-02-28T12:07:41;96775.94;;;10.30;63.80
77207;BME280;66190;50.708;7.906;2024-02-28T12:10:08;96794.88;;;10.01;63.08
77207;BME280;66190;50.708;7.906;2024-02-28T12:12:34;96778.88;;;9.93;63.44
77207;BME280;66190;50.708;7.906;2024-02-28T12:15:00;96780.88;;;10.27;63.90
77207;BME280;66190;50.708;7.906;2024-02-28T12:17:28;96779.69;;;10.29;62.22
77207;BME280;66190;50.708;7.906;2024-02-28T12:19:54;96775.66;;;10.04;62.54
77207;BME280;66190;50.708;7.906;2024-02-28T12:22:20;96779.34;;;9.97;62.70
77207;BME280;66190;50.708;7.906;2024-02-28T12:24:46;96771.81;;;10.28;63.20
77207;BME280;66190;50.708;7.906;2024-02-28T12:27:11;96777.63;;;9.75;58.63
77207;BME280;66190;50.708;7.906;2024-02-28T12:29:36;96770.38;;;10.32;58.09
77207;BME280;66190;50.708;7.906;2024-02-28T12:32:02;96771.91;;;10.20;57.38
77207;BME280;66190;50.708;7.906;2024-02-28T12:34:28;96767.53;;;10.12;57.15
77207;BME280;66190;50.708;7.906;2024-02-28T12:36:53;96765.59;;;10.27;53.42
77207;BME280;66190;50.708;7.906;2024-02-28T12:39:19;96768.88;;;9.87;53.30
77207;BME280;66190;50.708;7.906;2024-02-28T12:41:44;96770.31;;;9.83;55.75
77207;BME280;66190;50.708;7.906;2024-02-28T12:44:10;96767.44;;;10.06;54.96
77207;BME280;66190;50.708;7.906;2024-02-28T12:46:36;96759.72;;;10.17;54.76
77207;BME280;66190;50.708;7.906;2024-02-28T12:49:02;96760.78;;;10.44;54.60
77207;BME280;66190;50.708;7.906;2024-02-28T12:51:40;96755.09;;;10.11;52.26
77207;BME280;66190;50.708;7.906;2024-02-28T12:54:09;96756.41;;;10.43;52.80
77207;BME280;66190;50.708;7.906;2024-02-28T12:56:39;96749.69;;;10.88;51.74
77207;BME280;66190;50.708;7.906;2024-02-28T12:59:05;96748.81;;;10.81;51.09
77207;BME280;66190;50.708;7.906;2024-02-28T13:01:32;96736.38;;;10.46;50.01
77207;BME280;66190;50.708;7.906;2024-02-28T13:03:58;96747.41;;;10.85;53.17